Atkinson, Nebraska
Current Conditions -  °F | °C
As of 10:35 PM on Thursday 18 Dec 2014 (Local Time) from KONL Reporting Station
Overcast Overcast  
Wind Chill: 29°   Ceiling: 1100
Heat Index: 29°   Visibility: 7mi
Dew Point: 28°   Wind: 3mph
Humidity: 96%   Direction: 190°S
Pressure: 30.13"   Gusts: NA
Location:  42.53°N, 98.98°W
Report Text: KONL 190435Z AUTO 19003KT 7SM OVC011 M02/M02 A3013 RMK AO2 T10171023
Loading
Personal Weather Stations






























Interactive Weather Map New forecast layout! Learn more

10-Day Weather Forecast

Advertisements
Track Severe Weather on mobile